createdAt,value
2022-11-13T00:00:31.190Z,3.72
2022-11-13T00:06:02.018Z,3.22
2022-11-13T00:11:23.153Z,3.58
2022-11-13T00:16:44.114Z,3.38
2022-11-13T00:22:05.065Z,3.45
2022-11-13T00:27:25.546Z,3.30
2022-11-13T00:32:46.005Z,3.72
2022-11-13T00:38:06.859Z,3.80
2022-11-13T00:43:28.000Z,3.75
2022-11-13T00:48:48.607Z,4.18
2022-11-13T00:54:09.223Z,3.65
2022-11-13T00:59:29.947Z,3.85
2022-11-13T01:04:50.394Z,4.15
2022-11-13T01:10:10.954Z,4.22
2022-11-13T01:15:31.470Z,3.95
2022-11-13T01:20:52.169Z,4.30
2022-11-13T01:26:16.072Z,4.35
2022-11-13T01:31:36.560Z,4.30
2022-11-13T01:36:56.791Z,4.32
2022-11-13T01:42:17.626Z,4.50
2022-11-13T01:47:38.605Z,4.75
2022-11-13T01:52:59.254Z,4.07
2022-11-13T01:58:20.093Z,4.35
2022-11-13T02:03:40.512Z,4.80
2022-11-13T02:09:01.951Z,4.50
2022-11-13T02:14:25.866Z,4.70
2022-11-13T02:19:51.752Z,4.53
2022-11-13T02:25:14.204Z,4.32
2022-11-13T02:30:35.986Z,4.78
2022-11-13T02:35:56.978Z,4.43
2022-11-13T02:41:17.805Z,4.95
2022-11-13T02:46:38.396Z,4.07
2022-11-13T02:51:59.021Z,4.15
2022-11-13T02:57:19.439Z,4.32
2022-11-13T03:02:40.762Z,4.97
2022-11-13T03:08:01.837Z,4.35
2022-11-13T03:13:22.557Z,4.88
2022-11-13T03:18:43.530Z,4.55
2022-11-13T03:24:04.365Z,4.10
2022-11-13T03:29:25.002Z,3.95
2022-11-13T03:34:46.397Z,3.90
2022-11-13T03:40:07.592Z,3.70
2022-11-13T03:45:27.890Z,4.38
2022-11-13T03:50:52.003Z,3.75
2022-11-13T03:56:12.399Z,3.83
2022-11-13T04:01:33.434Z,3.30
2022-11-13T04:06:54.570Z,3.30
2022-11-13T04:12:15.489Z,3.97
2022-11-13T04:17:36.318Z,3.85
2022-11-13T04:22:57.518Z,3.67
2022-11-13T04:28:17.954Z,4.35
2022-11-13T04:33:38.927Z,4.30
2022-11-13T04:38:59.998Z,4.22
2022-11-13T04:44:20.870Z,3.85
2022-11-13T04:49:41.736Z,3.80
2022-11-13T04:55:02.675Z,4.10
2022-11-13T05:00:23.647Z,4.30
2022-11-13T05:05:44.256Z,4.22
2022-11-13T05:11:05.352Z,4.10
2022-11-13T05:16:25.941Z,4.25
2022-11-13T05:21:46.946Z,4.13
2022-11-13T05:27:11.528Z,4.05
2022-11-13T05:32:34.874Z,3.95
2022-11-13T05:37:55.823Z,4.50
2022-11-13T05:43:16.239Z,4.75
2022-11-13T05:48:37.355Z,4.55
2022-11-13T05:53:58.625Z,3.95
2022-11-13T05:59:19.475Z,4.03
2022-11-13T06:04:40.142Z,4.82
2022-11-13T06:10:01.078Z,4.93
2022-11-13T06:15:21.568Z,4.82
2022-11-13T06:20:42.459Z,4.43
2022-11-13T06:26:23.830Z,4.45
2022-11-13T06:31:44.287Z,4.53
2022-11-13T06:37:05.079Z,5.78
2022-11-13T06:42:25.840Z,4.55
2022-11-13T06:47:46.745Z,4.57
2022-11-13T06:53:07.775Z,3.80
2022-11-13T06:58:28.880Z,3.92
2022-11-13T07:03:49.732Z,3.90
2022-11-13T07:09:10.425Z,4.15
2022-11-13T07:14:31.465Z,4.40
2022-11-13T07:19:52.471Z,3.72
2022-11-13T07:25:13.518Z,3.83
2022-11-13T07:30:34.020Z,3.90
2022-11-13T07:35:58.416Z,4.45
2022-11-13T07:41:19.019Z,4.20
2022-11-13T07:46:39.487Z,4.40
2022-11-13T07:51:59.933Z,4.05
2022-11-13T07:57:22.964Z,3.83
2022-11-13T08:02:43.612Z,4.38
2022-11-13T08:08:04.657Z,4.50
2022-11-13T08:13:25.517Z,4.75
2022-11-13T08:18:46.133Z,4.80
2022-11-13T08:24:06.979Z,4.40
2022-11-13T08:29:27.462Z,4.60
2022-11-13T08:34:48.349Z,3.92
2022-11-13T08:40:09.555Z,3.78
2022-11-13T08:45:30.915Z,4.30
2022-11-13T08:50:53.790Z,3.75
2022-11-13T08:56:15.790Z,3.78
2022-11-13T09:01:36.350Z,4.00
2022-11-13T09:06:57.844Z,3.78
2022-11-13T09:12:18.704Z,3.63
2022-11-13T09:17:39.530Z,3.30
2022-11-13T09:23:10.499Z,3.55
2022-11-13T09:28:31.194Z,4.00
2022-11-13T09:33:52.207Z,3.70
2022-11-13T09:39:13.258Z,4.25
2022-11-13T09:44:43.015Z,3.95
2022-11-13T09:50:07.442Z,4.35
2022-11-13T09:55:34.216Z,3.90
2022-11-13T10:00:55.151Z,3.80
2022-11-13T10:06:43.706Z,3.95
2022-11-13T10:12:07.748Z,3.92
2022-11-13T10:17:46.936Z,3.60
2022-11-13T10:23:21.684Z,4.05
2022-11-13T10:28:51.297Z,3.50
2022-11-13T10:34:13.918Z,4.15
2022-11-13T10:39:44.661Z,3.95
2022-11-13T10:45:13.552Z,3.88
2022-11-13T10:50:35.688Z,3.65
2022-11-13T10:55:59.357Z,3.35
2022-11-13T11:01:23.960Z,3.40
2022-11-13T11:12:30.872Z,3.20
2022-11-13T11:18:26.549Z,2.90
2022-11-13T11:23:54.714Z,3.90
2022-11-13T11:29:28.453Z,2.65
2022-11-13T11:35:08.207Z,3.17
2022-11-13T11:40:38.286Z,2.78
2022-11-13T11:45:58.641Z,3.10
2022-11-13T11:51:42.993Z,2.78
2022-11-13T11:57:17.688Z,3.03
2022-11-13T12:02:40.867Z,2.90
2022-11-13T12:08:26.304Z,2.40
2022-11-13T12:14:06.551Z,2.70
2022-11-13T12:20:07.626Z,2.33
2022-11-13T12:26:11.916Z,2.75
2022-11-13T12:31:39.438Z,2.35
2022-11-13T12:37:05.555Z,2.47
2022-11-13T12:42:40.956Z,2.50
2022-11-13T12:48:21.793Z,2.53
2022-11-13T12:53:51.643Z,3.13
2022-11-13T12:59:33.800Z,2.80
2022-11-13T13:05:07.591Z,2.85
2022-11-13T13:10:50.965Z,2.55
2022-11-13T13:16:12.112Z,2.42
2022-11-13T13:21:42.362Z,2.50
2022-11-13T13:27:20.577Z,2.45
2022-11-13T13:32:58.931Z,2.85
2022-11-13T13:38:35.223Z,2.67
2022-11-13T13:49:32.633Z,2.83
2022-11-13T13:54:53.607Z,2.65
2022-11-13T14:00:17.325Z,2.85
2022-11-13T14:05:38.238Z,2.90
2022-11-13T14:10:58.627Z,2.97
2022-11-13T14:16:19.165Z,2.60
2022-11-13T14:21:39.695Z,2.65
2022-11-13T14:27:05.286Z,2.28
2022-11-13T14:32:29.090Z,2.50
2022-11-13T14:37:50.281Z,2.85
2022-11-13T14:43:18.778Z,2.65
2022-11-13T14:48:39.678Z,2.50
2022-11-13T14:54:08.762Z,2.58
2022-11-13T14:59:29.888Z,2.83
2022-11-13T15:04:50.708Z,2.85
2022-11-13T15:10:16.753Z,2.50
2022-11-13T15:15:37.562Z,2.78
2022-11-13T15:20:58.783Z,2.28
2022-11-13T15:26:19.829Z,2.47
2022-11-13T15:31:45.072Z,2.67
2022-11-13T15:37:13.330Z,2.47
2022-11-13T15:42:35.782Z,2.95
2022-11-13T15:47:56.615Z,2.67
2022-11-13T15:53:17.530Z,2.65
2022-11-13T15:58:38.260Z,2.78
2022-11-13T16:04:02.311Z,2.20
2022-11-13T16:09:23.194Z,2.83
2022-11-13T16:14:44.501Z,3.13
2022-11-13T16:20:07.957Z,2.35
2022-11-13T16:25:28.732Z,3.83
2022-11-13T16:30:50.309Z,3.88
2022-11-13T16:36:21.891Z,3.53
2022-11-13T16:41:42.403Z,3.70
2022-11-13T16:47:05.015Z,3.05
2022-11-13T16:52:26.919Z,3.58
2022-11-13T16:57:47.693Z,3.30
2022-11-13T17:03:08.520Z,3.17
2022-11-13T17:08:29.290Z,3.25
2022-11-13T17:13:52.038Z,3.85
2022-11-13T17:19:15.189Z,3.30
2022-11-13T17:24:36.011Z,3.55
2022-11-13T17:29:57.005Z,4.32
2022-11-13T17:35:17.956Z,3.50
2022-11-13T17:40:38.457Z,4.10
2022-11-13T17:45:59.377Z,3.85
2022-11-13T17:51:20.496Z,3.63
2022-11-13T17:56:42.916Z,3.97
2022-11-13T18:02:03.456Z,3.33
2022-11-13T18:07:24.128Z,3.90
2022-11-13T18:12:45.036Z,3.33
2022-11-13T18:18:07.468Z,3.47
2022-11-13T18:23:28.458Z,3.25
2022-11-13T18:28:49.022Z,3.85
2022-11-13T18:34:12.814Z,3.97
2022-11-13T18:39:33.636Z,4.18
2022-11-13T18:44:54.734Z,4.15
2022-11-13T18:50:15.607Z,4.18
2022-11-13T18:55:36.382Z,4.50
2022-11-13T19:01:07.360Z,4.72
2022-11-13T19:06:28.459Z,5.25
2022-11-13T19:11:51.237Z,8.90
2022-11-13T19:17:11.958Z,6.85
2022-11-13T19:22:32.796Z,5.40
2022-11-13T19:27:54.369Z,4.97
2022-11-13T19:33:15.253Z,3.80
2022-11-13T19:38:37.057Z,4.25
2022-11-13T19:43:59.806Z,4.60
2022-11-13T19:49:20.694Z,4.35
2022-11-13T19:54:42.139Z,3.70
2022-11-13T20:00:03.367Z,4.00
2022-11-13T20:05:24.099Z,4.25
2022-11-13T20:10:45.106Z,4.40
2022-11-13T20:16:07.669Z,5.05
2022-11-13T20:21:30.764Z,4.15
2022-11-13T20:26:51.357Z,4.50
2022-11-13T20:32:12.489Z,3.92
2022-11-13T20:37:33.643Z,3.60
2022-11-13T20:42:54.499Z,4.15
2022-11-13T20:48:15.666Z,4.10
2022-11-13T20:53:36.417Z,4.35
2022-11-13T20:58:57.384Z,4.53
2022-11-13T21:04:18.506Z,4.63
2022-11-13T21:09:38.962Z,4.10
2022-11-13T21:14:59.951Z,4.57
2022-11-13T21:20:21.046Z,4.85
2022-11-13T21:25:42.108Z,3.95
2022-11-13T21:31:19.413Z,4.55
2022-11-13T21:36:40.076Z,4.30
2022-11-13T21:42:01.110Z,4.75
2022-11-13T21:47:22.086Z,4.43
2022-11-13T21:52:42.427Z,4.03
2022-11-13T21:58:02.901Z,4.35
2022-11-13T22:03:23.726Z,4.68
2022-11-13T22:08:46.058Z,4.28
2022-11-13T22:14:07.102Z,4.60
2022-11-13T22:19:32.231Z,4.63
2022-11-13T22:24:55.501Z,5.20
2022-11-13T22:30:16.276Z,5.75
2022-11-13T22:35:36.769Z,5.05
2022-11-13T22:41:03.372Z,5.10
2022-11-13T22:51:46.066Z,6.05
2022-11-13T22:57:07.072Z,6.30
2022-11-13T23:02:28.085Z,6.57
2022-11-13T23:07:49.798Z,6.03
2022-11-13T23:13:10.540Z,5.00
2022-11-13T23:18:32.645Z,4.20
2022-11-13T23:23:54.345Z,5.20
2022-11-13T23:29:15.057Z,5.32
2022-11-13T23:34:58.060Z,5.13
2022-11-13T23:40:16.487Z,4.78
2022-11-13T23:45:37.533Z,5.07
2022-11-13T23:51:02.215Z,4.93
2022-11-13T23:56:22.802Z,4.95
